createdAt,value
2022-10-30T00:00:30.445Z,98785.06
2022-10-30T00:02:35.090Z,98785.41
2022-10-30T00:04:40.165Z,98782.78
2022-10-30T00:06:46.750Z,98778.38
2022-10-30T00:08:51.592Z,98781.09
2022-10-30T00:10:56.799Z,98770.47
2022-10-30T00:13:03.883Z,98780.34
2022-10-30T00:15:10.001Z,98774.97
2022-10-30T00:17:14.829Z,98771.31
2022-10-30T00:19:19.677Z,98771.13
2022-10-30T00:21:24.519Z,98770.22
2022-10-30T00:23:29.558Z,98766.75
2022-10-30T00:25:34.349Z,98771.06
2022-10-30T00:27:39.149Z,98772.75
2022-10-30T00:29:46.754Z,98778.94
2022-10-30T00:31:51.496Z,98787.09
2022-10-30T00:33:57.630Z,98780.16
2022-10-30T00:36:03.004Z,98777.72
2022-10-30T00:38:07.805Z,98773.28
2022-10-30T00:40:18.076Z,98766.34
2022-10-30T00:42:22.838Z,98774.31
2022-10-30T00:44:44.028Z,98766.44
2022-10-30T00:46:51.647Z,98777.13
2022-10-30T00:49:00.868Z,98778.25
2022-10-30T00:51:08.500Z,98776.63
2022-10-30T00:53:17.810Z,98776.63
2022-10-30T00:55:27.744Z,98774.00
2022-10-30T00:57:34.273Z,98773.16
2022-10-30T00:59:40.380Z,98776.53
2022-10-30T01:01:47.788Z,98776.53
2022-10-30T01:03:58.610Z,98775.69
2022-10-30T01:06:05.875Z,98781.78
2022-10-30T01:08:10.608Z,98774.84
2022-10-30T01:10:16.238Z,98775.03
2022-10-30T01:12:22.618Z,98767.13
2022-10-30T01:14:27.798Z,98779.44
2022-10-30T01:16:52.041Z,98771.81
2022-10-30T01:19:17.009Z,98777.34
2022-10-30T01:21:32.764Z,98776.59
2022-10-30T01:23:45.334Z,98771.41
2022-10-30T01:26:03.113Z,98766.16
2022-10-30T01:28:18.959Z,98770.38
2022-10-30T01:30:36.838Z,98760.88
2022-10-30T01:32:56.636Z,98761.66
2022-10-30T01:35:11.085Z,98765.06
2022-10-30T01:37:24.832Z,98760.72
2022-10-30T01:39:32.480Z,98759.97
2022-10-30T01:41:37.285Z,98760.16
2022-10-30T01:43:43.538Z,98757.53
2022-10-30T01:46:02.719Z,98757.59
2022-10-30T01:48:32.940Z,98756.84
2022-10-30T01:50:47.800Z,98756.00
2022-10-30T01:53:00.520Z,98756.94
2022-10-30T01:55:13.781Z,98751.59
2022-10-30T01:57:30.523Z,98755.91
2022-10-30T01:59:40.806Z,98754.97
2022-10-30T02:01:46.688Z,98753.19
2022-10-30T02:03:52.988Z,98753.19
2022-10-30T02:06:01.090Z,98758.63
2022-10-30T02:08:09.658Z,98762.19
2022-10-30T02:10:17.092Z,98758.72
2022-10-30T02:12:22.794Z,98754.50
2022-10-30T02:14:31.541Z,98756.19
2022-10-30T02:16:40.819Z,98745.66
2022-10-30T02:18:48.673Z,98754.31
2022-10-30T02:20:56.651Z,98750.00
2022-10-30T02:23:01.963Z,98747.28
2022-10-30T02:25:12.440Z,98742.84
2022-10-30T02:27:17.477Z,98751.69
2022-10-30T02:29:22.521Z,98758.72
2022-10-30T02:31:27.363Z,98758.63
2022-10-30T02:33:32.271Z,98748.94
2022-10-30T02:35:37.117Z,98750.84
2022-10-30T02:37:44.707Z,98751.03
2022-10-30T02:39:49.527Z,98746.69
2022-10-30T02:41:54.366Z,98752.81
2022-10-30T02:44:00.082Z,98748.28
2022-10-30T02:46:08.380Z,98747.44
2022-10-30T02:48:12.919Z,98745.84
2022-10-30T02:50:18.080Z,98746.03
2022-10-30T02:52:22.672Z,98738.50
2022-10-30T02:54:30.082Z,98742.16
2022-10-30T02:56:34.854Z,98741.31
2022-10-30T02:58:39.720Z,98733.44
2022-10-30T03:00:45.627Z,98743.94
2022-10-30T03:02:50.544Z,98744.88
2022-10-30T03:04:55.393Z,98739.63
2022-10-30T03:07:00.209Z,98744.13
2022-10-30T03:09:04.981Z,98745.91
2022-10-30T03:11:15.015Z,98747.84
2022-10-30T03:13:19.809Z,98750.56
2022-10-30T03:15:24.841Z,98746.44
2022-10-30T03:17:29.627Z,98742.03
2022-10-30T03:19:35.737Z,98733.38
2022-10-30T03:21:40.612Z,98741.25
2022-10-30T03:23:45.699Z,98739.56
2022-10-30T03:25:50.689Z,98741.31
2022-10-30T03:27:58.389Z,98738.81
2022-10-30T03:30:03.492Z,98742.56
2022-10-30T03:32:12.146Z,98734.69
2022-10-30T03:34:24.430Z,98737.53
2022-10-30T03:36:29.669Z,98739.41
2022-10-30T03:38:34.526Z,98743.56
2022-10-30T03:40:39.561Z,98735.75
2022-10-30T03:42:44.321Z,98741.97
2022-10-30T03:44:51.686Z,98741.84
2022-10-30T03:46:56.560Z,98741.13
2022-10-30T03:49:05.668Z,98741.13
2022-10-30T03:51:10.557Z,98740.53
2022-10-30T03:53:16.113Z,98731.81
2022-10-30T03:55:20.937Z,98731.88
2022-10-30T03:57:26.530Z,98729.34
2022-10-30T03:59:44.280Z,98728.59
2022-10-30T04:04:22.997Z,98723.69
2022-10-30T04:06:30.088Z,98725.19
2022-10-30T04:08:34.852Z,98724.69
2022-10-30T04:10:44.597Z,98727.41
2022-10-30T04:12:49.972Z,98723.84
2022-10-30T04:14:55.137Z,98725.66
2022-10-30T04:16:59.791Z,98723.44
2022-10-30T04:19:07.463Z,98720.03
2022-10-30T04:21:13.012Z,98728.84
2022-10-30T04:23:20.332Z,98729.81
2022-10-30T04:25:25.884Z,98732.44
2022-10-30T04:27:30.853Z,98733.44
2022-10-30T04:29:37.624Z,98735.97
2022-10-30T04:31:42.708Z,98745.78
2022-10-30T04:33:47.542Z,98744.16
2022-10-30T04:35:55.232Z,98743.72
2022-10-30T04:38:01.920Z,98739.47
2022-10-30T04:40:07.765Z,98737.03
2022-10-30T04:42:22.726Z,98744.16
2022-10-30T04:44:27.747Z,98754.88
2022-10-30T04:46:34.532Z,98748.03
2022-10-30T04:48:49.550Z,98739.47
2022-10-30T04:50:57.117Z,98738.69
2022-10-30T04:53:05.300Z,98742.44
2022-10-30T04:55:11.939Z,98760.03
2022-10-30T04:57:17.393Z,98766.53
2022-10-30T04:59:22.280Z,98769.09
2022-10-30T05:01:30.025Z,98774.66
2022-10-30T05:03:36.692Z,98774.81
2022-10-30T05:05:46.587Z,98787.56
2022-10-30T05:07:54.208Z,98781.63
2022-10-30T05:09:59.228Z,98786.00
2022-10-30T05:12:04.289Z,98778.94
2022-10-30T05:14:15.588Z,98774.22
2022-10-30T05:16:21.951Z,98780.16
2022-10-30T05:18:26.779Z,98775.75
2022-10-30T05:20:31.823Z,98773.97
2022-10-30T05:22:36.925Z,98767.06
2022-10-30T05:24:44.420Z,98769.69
2022-10-30T05:26:49.277Z,98768.97
2022-10-30T05:28:54.615Z,98765.50
2022-10-30T05:30:59.385Z,98759.31
2022-10-30T05:33:23.704Z,98753.50
2022-10-30T05:35:29.140Z,98760.34
2022-10-30T05:37:34.257Z,98762.34
2022-10-30T05:39:39.581Z,98761.53
2022-10-30T05:41:54.729Z,98758.91
2022-10-30T05:44:09.501Z,98759.75
2022-10-30T05:46:17.969Z,98755.28
2022-10-30T05:48:24.258Z,98759.41
2022-10-30T05:50:29.296Z,98758.63
2022-10-30T05:52:51.018Z,98762.19
2022-10-30T05:54:55.838Z,98764.66
2022-10-30T05:57:13.829Z,98761.03
2022-10-30T05:59:19.245Z,98763.81
2022-10-30T06:01:26.850Z,98767.34
2022-10-30T06:03:35.439Z,98769.13
2022-10-30T06:05:40.831Z,98763.13
2022-10-30T06:07:45.895Z,98770.91
2022-10-30T06:09:50.658Z,98765.59
2022-10-30T06:12:05.865Z,98764.72
2022-10-30T06:14:33.505Z,98773.63
2022-10-30T06:16:38.283Z,98779.63
2022-10-30T06:19:01.584Z,98780.72
2022-10-30T06:21:08.372Z,98775.31
2022-10-30T06:23:28.951Z,98783.00
2022-10-30T06:25:42.092Z,98781.91
2022-10-30T06:27:51.512Z,98782.69
2022-10-30T06:29:59.189Z,98780.91
2022-10-30T06:32:06.717Z,98783.53
2022-10-30T06:34:12.172Z,98788.94
2022-10-30T06:36:19.087Z,98780.06
2022-10-30T06:38:24.413Z,98786.16
2022-10-30T06:40:32.368Z,98778.38
2022-10-30T06:43:00.783Z,98775.81
2022-10-30T06:45:18.471Z,98779.22
2022-10-30T06:47:23.413Z,98779.22
2022-10-30T06:49:29.773Z,98780.06
2022-10-30T06:51:34.999Z,98777.38
2022-10-30T06:53:40.923Z,98776.50
2022-10-30T06:56:17.472Z,98791.50
2022-10-30T06:58:42.471Z,98787.88
2022-10-30T07:00:53.693Z,98791.19
2022-10-30T07:03:27.954Z,98786.84
2022-10-30T07:05:32.890Z,98779.22
2022-10-30T07:07:39.154Z,98785.41
2022-10-30T07:09:46.613Z,98788.88
2022-10-30T07:11:56.603Z,98792.09
2022-10-30T07:14:04.566Z,98795.25
2022-10-30T07:16:30.664Z,98799.34
2022-10-30T07:18:35.485Z,98794.16
2022-10-30T07:20:42.087Z,98800.56
2022-10-30T07:22:48.009Z,98801.66
2022-10-30T07:24:52.958Z,98802.50
2022-10-30T07:27:15.981Z,98804.34
2022-10-30T07:29:49.779Z,98801.66
2022-10-30T07:32:03.545Z,98802.34
2022-10-30T07:34:14.100Z,98794.69
2022-10-30T07:36:33.534Z,98802.50
2022-10-30T07:38:56.757Z,98805.97
2022-10-30T07:41:24.908Z,98800.81
2022-10-30T07:43:38.271Z,98796.47
2022-10-30T07:46:12.033Z,98798.25
2022-10-30T07:48:54.597Z,98796.41
2022-10-30T07:51:05.939Z,98804.19
2022-10-30T07:53:10.977Z,98796.25
2022-10-30T07:55:15.931Z,98798.94
2022-10-30T07:57:26.347Z,98808.59
2022-10-30T07:59:49.768Z,98795.66
2022-10-30T08:02:17.372Z,98801.56
2022-10-30T08:04:54.620Z,98805.59
2022-10-30T08:07:19.740Z,98804.41
2022-10-30T08:09:24.479Z,98806.63
2022-10-30T08:11:29.352Z,98801.06
2022-10-30T08:13:36.075Z,98803.69
2022-10-30T08:15:40.974Z,98799.19
2022-10-30T08:17:47.568Z,98798.28
2022-10-30T08:19:55.493Z,98801.50
2022-10-30T08:22:02.278Z,98802.22
2022-10-30T08:24:11.863Z,98799.47
2022-10-30T08:26:19.543Z,98800.25
2022-10-30T08:28:29.955Z,98795.63
2022-10-30T08:30:39.157Z,98796.47
2022-10-30T08:32:46.930Z,98793.50
2022-10-30T08:35:17.204Z,98787.16
2022-10-30T08:37:24.722Z,98790.47
2022-10-30T08:39:29.783Z,98792.03
2022-10-30T08:42:02.051Z,98797.19
2022-10-30T08:44:12.545Z,98792.78
2022-10-30T08:46:50.429Z,98792.78
2022-10-30T08:48:57.270Z,98786.50
2022-10-30T08:51:04.907Z,98791.34
2022-10-30T08:53:16.812Z,98792.72
2022-10-30T08:55:23.622Z,98783.72
2022-10-30T08:57:30.832Z,98780.75
2022-10-30T08:59:35.823Z,98780.50
2022-10-30T09:01:40.752Z,98776.88
2022-10-30T09:03:57.361Z,98782.44
2022-10-30T09:06:23.450Z,98773.00
2022-10-30T09:08:57.385Z,98768.91
2022-10-30T09:11:23.270Z,98767.72
2022-10-30T09:13:30.997Z,98768.97
2022-10-30T09:15:36.746Z,98765.97
2022-10-30T09:17:43.971Z,98762.91
2022-10-30T09:22:02.508Z,98759.88
2022-10-30T09:24:09.643Z,98759.16
2022-10-30T09:26:16.951Z,98759.53
2022-10-30T09:28:39.587Z,98753.06
2022-10-30T09:31:09.667Z,98751.72
2022-10-30T09:33:16.773Z,98750.31
2022-10-30T09:35:50.239Z,98747.09
2022-10-30T09:37:58.326Z,98744.84
2022-10-30T09:40:04.595Z,98737.50
2022-10-30T09:42:27.457Z,98749.06
2022-10-30T09:44:48.677Z,98744.16
2022-10-30T09:47:10.001Z,98747.34
2022-10-30T09:49:28.112Z,98738.97
2022-10-30T09:52:10.657Z,98730.78
2022-10-30T09:54:35.625Z,98732.19
2022-10-30T09:56:47.465Z,98733.66
2022-10-30T09:59:05.095Z,98733.81
2022-10-30T10:01:19.343Z,98727.94
2022-10-30T10:03:46.221Z,98730.19
2022-10-30T10:06:19.974Z,98731.25
2022-10-30T10:08:43.755Z,98726.41
2022-10-30T10:11:15.496Z,98721.69
2022-10-30T10:13:31.456Z,98718.00
2022-10-30T10:15:42.719Z,98720.34
2022-10-30T10:17:48.860Z,98727.84
2022-10-30T10:20:02.148Z,98724.06
2022-10-30T10:22:16.110Z,98717.72
2022-10-30T10:24:25.711Z,98724.16
2022-10-30T10:26:38.685Z,98723.19
2022-10-30T10:29:04.361Z,98715.81
2022-10-30T10:31:16.617Z,98709.59
2022-10-30T10:33:44.320Z,98710.03
2022-10-30T10:36:10.149Z,98707.59
2022-10-30T10:38:29.318Z,98697.66
2022-10-30T10:40:48.654Z,98700.84
2022-10-30T10:43:10.220Z,98698.06
2022-10-30T10:45:30.877Z,98694.59
2022-10-30T10:47:55.494Z,98692.50
2022-10-30T10:50:14.920Z,98692.97
2022-10-30T10:52:25.851Z,98686.44
2022-10-30T10:54:34.639Z,98690.34
2022-10-30T10:56:42.637Z,98686.50
2022-10-30T10:58:54.411Z,98683.34
2022-10-30T11:01:00.954Z,98677.59
2022-10-30T11:03:12.416Z,98674.53
2022-10-30T11:05:25.741Z,98670.72
2022-10-30T11:07:35.119Z,98674.94
2022-10-30T11:09:40.172Z,98671.16
2022-10-30T11:11:44.897Z,98660.44
2022-10-30T11:13:52.782Z,98668.66
2022-10-30T11:16:07.420Z,98668.22
2022-10-30T11:18:14.717Z,98670.41
2022-10-30T11:20:23.725Z,98660.22
2022-10-30T11:22:34.318Z,98667.09
2022-10-30T11:24:39.534Z,98659.53
2022-10-30T11:26:45.435Z,98661.22
2022-10-30T11:28:56.547Z,98659.19
2022-10-30T11:31:22.597Z,98650.53
2022-10-30T11:33:31.584Z,98666.44
2022-10-30T11:35:45.226Z,98651.19
2022-10-30T11:37:52.057Z,98652.53
2022-10-30T11:40:05.877Z,98651.59
2022-10-30T11:42:17.429Z,98649.31
2022-10-30T11:44:26.882Z,98643.31
2022-10-30T11:46:31.854Z,98646.56
2022-10-30T11:48:37.306Z,98643.25
2022-10-30T11:50:50.458Z,98634.94
2022-10-30T11:52:58.694Z,98635.44
2022-10-30T11:55:11.011Z,98626.16
2022-10-30T11:57:25.911Z,98623.88
2022-10-30T11:59:33.539Z,98630.72
2022-10-30T12:01:39.515Z,98633.53
2022-10-30T12:03:47.849Z,98631.97
2022-10-30T12:05:52.584Z,98627.84
2022-10-30T12:08:13.868Z,98629.16
2022-10-30T12:10:27.655Z,98623.28
2022-10-30T12:12:37.198Z,98625.06
2022-10-30T12:14:44.866Z,98632.88
2022-10-30T12:16:51.412Z,98623.72
2022-10-30T12:19:05.631Z,98612.28
2022-10-30T12:21:12.171Z,98604.34
2022-10-30T12:23:22.235Z,98606.66
2022-10-30T12:25:30.996Z,98607.13
2022-10-30T12:27:40.405Z,98605.44
2022-10-30T12:30:08.435Z,98610.47
2022-10-30T12:32:20.323Z,98611.34
2022-10-30T12:34:36.816Z,98600.75
2022-10-30T12:36:48.910Z,98600.13
2022-10-30T12:38:59.917Z,98601.84
2022-10-30T12:41:16.792Z,98600.63
2022-10-30T12:43:28.625Z,98607.63
2022-10-30T12:45:43.462Z,98606.63
2022-10-30T12:47:54.381Z,98596.16
2022-10-30T12:52:15.669Z,98595.31
2022-10-30T12:54:33.725Z,98598.94
2022-10-30T12:56:41.527Z,98594.38
2022-10-30T12:58:53.778Z,98585.72
2022-10-30T13:01:07.855Z,98589.44
2022-10-30T13:03:25.521Z,98593.31
2022-10-30T13:05:36.586Z,98593.06
2022-10-30T13:07:47.903Z,98585.00
2022-10-30T13:10:00.785Z,98590.19
2022-10-30T13:12:09.279Z,98587.63
2022-10-30T13:16:29.020Z,98586.19
2022-10-30T13:18:34.252Z,98586.19
2022-10-30T13:20:39.065Z,98582.47
2022-10-30T13:22:51.356Z,98571.72
2022-10-30T13:25:04.262Z,98578.84
2022-10-30T13:27:17.605Z,98571.25
2022-10-30T13:29:30.885Z,98570.81
2022-10-30T13:31:50.784Z,98572.72
2022-10-30T13:34:03.924Z,98566.97
2022-10-30T13:36:17.697Z,98568.03
2022-10-30T13:38:38.167Z,98567.94
2022-10-30T13:40:47.786Z,98569.84
2022-10-30T13:43:02.103Z,98573.34
2022-10-30T13:45:26.644Z,98571.53
2022-10-30T13:47:45.326Z,98573.22
2022-10-30T13:50:09.652Z,98574.91
2022-10-30T13:52:18.408Z,98578.63
2022-10-30T13:54:27.254Z,98566.38
2022-10-30T13:56:32.784Z,98572.50
2022-10-30T13:58:42.925Z,98571.66
2022-10-30T14:01:02.711Z,98570.69
2022-10-30T14:03:19.384Z,98575.88
2022-10-30T14:05:35.725Z,98568.88
2022-10-30T14:07:49.330Z,98572.41
2022-10-30T14:10:02.732Z,98572.50
2022-10-30T14:12:37.250Z,98576.81
2022-10-30T14:14:51.584Z,98581.16
2022-10-30T14:17:13.740Z,98573.94
2022-10-30T14:19:21.785Z,98572.16
2022-10-30T14:21:35.040Z,98578.13
2022-10-30T14:23:42.958Z,98575.63
2022-10-30T14:25:47.849Z,98571.16
2022-10-30T14:27:59.112Z,98569.34
2022-10-30T14:30:04.437Z,98572.97
2022-10-30T14:32:25.126Z,98572.63
2022-10-30T14:35:00.943Z,98568.19
2022-10-30T14:37:05.823Z,98565.63
2022-10-30T14:39:48.707Z,98568.44
2022-10-30T14:42:04.967Z,98566.63
2022-10-30T14:44:22.451Z,98573.72
2022-10-30T14:46:35.767Z,98574.31
2022-10-30T14:48:52.479Z,98576.13
2022-10-30T14:51:10.691Z,98579.53
2022-10-30T14:53:32.621Z,98579.88
2022-10-30T14:55:50.478Z,98589.84
2022-10-30T14:57:57.379Z,98585.03
2022-10-30T15:00:31.559Z,98579.84
2022-10-30T15:02:44.911Z,98585.28
2022-10-30T15:05:09.573Z,98584.31
2022-10-30T15:07:27.746Z,98584.44
2022-10-30T15:09:46.828Z,98594.41
2022-10-30T15:12:06.751Z,98591.75
2022-10-30T15:14:21.687Z,98591.50
2022-10-30T15:16:32.660Z,98590.81
2022-10-30T15:18:37.797Z,98591.75
2022-10-30T15:20:43.165Z,98594.50
2022-10-30T15:22:53.255Z,98598.03
2022-10-30T15:24:58.583Z,98600.03
2022-10-30T15:27:05.085Z,98602.31
2022-10-30T15:29:16.023Z,98599.41
2022-10-30T15:31:26.204Z,98601.66
2022-10-30T15:33:31.628Z,98610.06
2022-10-30T15:35:36.448Z,98615.22
2022-10-30T15:37:43.641Z,98625.53
2022-10-30T15:39:50.965Z,98629.34
2022-10-30T15:41:59.973Z,98628.97
2022-10-30T15:44:04.880Z,98630.28
2022-10-30T15:46:11.718Z,98632.88
2022-10-30T15:48:25.776Z,98629.72
2022-10-30T15:50:31.784Z,98635.41
2022-10-30T15:52:37.837Z,98635.88
2022-10-30T15:54:44.528Z,98641.47
2022-10-30T15:57:31.373Z,98639.19
2022-10-30T15:59:26.053Z,98636.03
2022-10-30T16:01:34.800Z,98640.78
2022-10-30T16:03:42.155Z,98646.28
2022-10-30T16:05:49.187Z,98650.00
2022-10-30T16:07:57.575Z,98645.06
2022-10-30T16:10:06.043Z,98652.47
2022-10-30T16:12:14.397Z,98653.72
2022-10-30T16:14:24.463Z,98657.53
2022-10-30T16:16:33.724Z,98654.41
2022-10-30T16:18:39.257Z,98662.75
2022-10-30T16:20:47.093Z,98662.22
2022-10-30T16:22:51.882Z,98667.81
2022-10-30T16:24:58.589Z,98662.00
2022-10-30T16:27:12.965Z,98670.34
2022-10-30T16:29:39.507Z,98676.88
2022-10-30T16:31:50.328Z,98677.38
2022-10-30T16:33:55.575Z,98681.16
2022-10-30T16:36:01.167Z,98671.78
2022-10-30T16:38:06.146Z,98675.38
2022-10-30T16:40:16.658Z,98680.66
2022-10-30T16:42:23.543Z,98678.22
2022-10-30T16:44:35.314Z,98685.47
2022-10-30T16:46:42.638Z,98684.09
2022-10-30T16:48:54.534Z,98686.13
2022-10-30T16:51:05.846Z,98686.44
2022-10-30T16:53:17.560Z,98694.63
2022-10-30T16:55:24.538Z,98695.81
2022-10-30T16:57:32.011Z,98689.16
2022-10-30T16:59:47.020Z,98699.69
2022-10-30T17:01:57.615Z,98701.78
2022-10-30T17:04:02.907Z,98702.94
2022-10-30T17:06:10.232Z,98704.06
2022-10-30T17:08:35.739Z,98713.84
2022-10-30T17:11:00.652Z,98713.34
2022-10-30T17:13:32.732Z,98713.63
2022-10-30T17:15:40.290Z,98716.66
2022-10-30T17:17:45.577Z,98723.81
2022-10-30T17:19:51.472Z,98720.44
2022-10-30T17:21:56.398Z,98724.19
2022-10-30T17:24:02.751Z,98727.16
2022-10-30T17:26:14.748Z,98729.94
2022-10-30T17:28:29.231Z,98724.84
2022-10-30T17:30:42.543Z,98741.25
2022-10-30T17:32:48.985Z,98735.25
2022-10-30T17:35:00.747Z,98738.72
2022-10-30T17:37:05.659Z,98737.97
2022-10-30T17:39:10.558Z,98741.63
2022-10-30T17:41:17.356Z,98738.34
2022-10-30T17:43:22.353Z,98734.97
2022-10-30T17:45:27.163Z,98741.25
2022-10-30T17:47:34.491Z,98737.03
2022-10-30T17:49:39.259Z,98735.53
2022-10-30T17:51:44.028Z,98741.84
2022-10-30T17:53:50.483Z,98740.34
2022-10-30T17:56:01.452Z,98737.91
2022-10-30T17:58:07.642Z,98746.84
2022-10-30T18:00:13.872Z,98745.31
2022-10-30T18:02:20.639Z,98760.66
2022-10-30T18:04:28.627Z,98752.19
2022-10-30T18:06:33.469Z,98761.13
2022-10-30T18:08:38.290Z,98757.63
2022-10-30T18:10:43.337Z,98755.09
2022-10-30T18:12:48.159Z,98763.00
2022-10-30T18:14:53.391Z,98757.16
2022-10-30T18:16:57.902Z,98770.78
2022-10-30T18:19:02.824Z,98770.03
2022-10-30T18:21:14.579Z,98774.34
2022-10-30T18:25:47.501Z,98764.78
2022-10-30T18:27:52.480Z,98766.56
2022-10-30T18:30:03.630Z,98773.50
2022-10-30T18:32:09.837Z,98770.28
2022-10-30T18:34:23.829Z,98779.22
2022-10-30T18:36:31.777Z,98773.22
2022-10-30T18:38:44.153Z,98780.25
2022-10-30T18:41:16.494Z,98766.25
2022-10-30T18:43:21.272Z,98777.91
2022-10-30T18:45:32.712Z,98781.56
2022-10-30T18:47:43.406Z,98778.94
2022-10-30T18:49:48.268Z,98783.34
2022-10-30T18:51:56.983Z,98774.69
2022-10-30T18:54:01.770Z,98775.63
2022-10-30T18:56:22.604Z,98770.28
2022-10-30T18:58:27.406Z,98774.63
2022-10-30T19:00:45.111Z,98772.91
2022-10-30T19:02:58.737Z,98771.25
2022-10-30T19:05:04.323Z,98770.53
2022-10-30T19:07:14.754Z,98768.91
2022-10-30T19:09:19.524Z,98764.59
2022-10-30T19:11:30.225Z,98769.09
2022-10-30T19:13:36.309Z,98769.19
2022-10-30T19:15:43.502Z,98763.91
2022-10-30T19:17:48.579Z,98767.50
2022-10-30T19:19:53.424Z,98765.78
2022-10-30T19:21:58.184Z,98767.69
2022-10-30T19:24:11.726Z,98766.66
2022-10-30T19:26:17.603Z,98768.53
2022-10-30T19:28:26.481Z,98764.22
2022-10-30T19:30:32.142Z,98772.28
2022-10-30T19:32:36.908Z,98772.28
2022-10-30T19:34:45.788Z,98774.97
2022-10-30T19:36:50.722Z,98774.22
2022-10-30T19:38:56.019Z,98776.84
2022-10-30T19:41:03.217Z,98779.75
2022-10-30T19:43:08.231Z,98779.75
2022-10-30T19:45:13.552Z,98777.47
2022-10-30T19:47:18.352Z,98779.53
2022-10-30T19:49:25.800Z,98783.09
2022-10-30T19:51:31.047Z,98782.31
2022-10-30T19:53:35.605Z,98790.47
2022-10-30T19:55:41.945Z,98792.34
2022-10-30T19:57:49.572Z,98786.31
2022-10-30T19:59:54.338Z,98791.75
2022-10-30T20:01:59.479Z,98791.94
2022-10-30T20:04:04.432Z,98792.94
2022-10-30T20:06:09.902Z,98793.03
2022-10-30T20:08:16.493Z,98789.66
2022-10-30T20:10:23.388Z,98791.50
2022-10-30T20:12:30.829Z,98788.03
2022-10-30T20:14:38.501Z,98797.72
2022-10-30T20:16:43.383Z,98794.31
2022-10-30T20:18:48.250Z,98811.00
2022-10-30T20:20:55.656Z,98803.13
2022-10-30T20:23:01.988Z,98799.72
2022-10-30T20:25:07.490Z,98802.38
2022-10-30T20:27:13.469Z,98809.41
2022-10-30T20:29:18.784Z,98817.34
2022-10-30T20:31:26.169Z,98813.94
2022-10-30T20:33:31.767Z,98819.31
2022-10-30T20:35:37.688Z,98817.63
2022-10-30T20:37:42.772Z,98816.75
2022-10-30T20:39:47.408Z,98821.44
2022-10-30T20:41:55.306Z,98829.53
2022-10-30T20:44:00.424Z,98823.44
2022-10-30T20:46:09.294Z,98823.44
2022-10-30T20:48:17.157Z,98822.63
2022-10-30T20:50:23.171Z,98824.38
2022-10-30T20:52:27.909Z,98829.63
2022-10-30T20:54:32.689Z,98827.88
2022-10-30T20:56:37.522Z,98829.72
2022-10-30T20:58:42.680Z,98833.34
2022-10-30T21:00:47.646Z,98831.72
2022-10-30T21:02:52.539Z,98840.44
2022-10-30T21:05:11.437Z,98831.91
2022-10-30T21:07:26.470Z,98841.72
2022-10-30T21:09:31.330Z,98834.88
2022-10-30T21:11:36.174Z,98835.03
2022-10-30T21:13:40.975Z,98835.22
2022-10-30T21:15:46.728Z,98833.09
2022-10-30T21:17:51.439Z,98840.28
2022-10-30T21:19:56.194Z,98836.84
2022-10-30T21:22:04.967Z,98841.13
2022-10-30T21:24:10.245Z,98841.97
2022-10-30T21:26:15.720Z,98847.16
2022-10-30T21:28:20.653Z,98841.06
2022-10-30T21:30:27.488Z,98836.00
2022-10-30T21:32:32.989Z,98830.81
2022-10-30T21:34:37.924Z,98837.00
2022-10-30T21:36:43.066Z,98832.81
2022-10-30T21:38:50.518Z,98830.28
2022-10-30T21:40:58.554Z,98830.28
2022-10-30T21:43:04.595Z,98829.50
2022-10-30T21:45:11.335Z,98827.84
2022-10-30T21:47:16.848Z,98813.25
2022-10-30T21:49:21.630Z,98816.78
2022-10-30T21:51:31.119Z,98810.97
2022-10-30T21:53:35.930Z,98818.00
2022-10-30T21:55:43.390Z,98811.13
2022-10-30T21:57:48.164Z,98819.06
2022-10-30T21:59:53.028Z,98822.63
2022-10-30T22:01:57.809Z,98814.06
2022-10-30T22:04:03.459Z,98811.50
2022-10-30T22:06:09.643Z,98808.13
2022-10-30T22:08:14.336Z,98810.84
2022-10-30T22:10:19.359Z,98811.84
2022-10-30T22:12:26.771Z,98812.00
2022-10-30T22:14:31.507Z,98819.91
2022-10-30T22:16:39.642Z,98812.22
2022-10-30T22:18:44.589Z,98820.09
2022-10-30T22:20:49.331Z,98815.00
2022-10-30T22:22:55.923Z,98811.75
2022-10-30T22:25:00.903Z,98813.53
2022-10-30T22:27:05.670Z,98812.63
2022-10-30T22:29:14.063Z,98817.88
2022-10-30T22:31:21.322Z,98815.31
2022-10-30T22:33:26.120Z,98821.41
2022-10-30T22:35:30.885Z,98819.94
2022-10-30T22:37:35.694Z,98816.63
2022-10-30T22:39:40.437Z,98815.94
2022-10-30T22:41:45.584Z,98816.72
2022-10-30T22:43:50.931Z,98819.56
2022-10-30T22:45:58.636Z,98814.31
2022-10-30T22:48:03.451Z,98817.72
2022-10-30T22:50:09.470Z,98813.31
2022-10-30T22:52:14.212Z,98810.84
2022-10-30T22:54:18.934Z,98811.84
2022-10-30T22:56:28.423Z,98802.53
2022-10-30T22:58:33.364Z,98809.53
2022-10-30T23:00:38.135Z,98804.38
2022-10-30T23:02:47.110Z,98798.22
2022-10-30T23:04:51.866Z,98806.13
2022-10-30T23:06:56.530Z,98814.25
2022-10-30T23:09:02.645Z,98822.16
2022-10-30T23:11:08.525Z,98817.16
2022-10-30T23:13:13.342Z,98820.69
2022-10-30T23:15:18.224Z,98811.31
2022-10-30T23:17:22.975Z,98822.81
2022-10-30T23:19:31.839Z,98818.41
2022-10-30T23:21:37.118Z,98820.28
2022-10-30T23:23:42.585Z,98823.22
2022-10-30T23:25:47.350Z,98822.56
2022-10-30T23:27:52.499Z,98825.25
2022-10-30T23:29:56.961Z,98830.09
2022-10-30T23:32:01.701Z,98829.53
2022-10-30T23:34:08.546Z,98833.22
2022-10-30T23:36:15.997Z,98832.50
2022-10-30T23:38:20.759Z,98830.97
2022-10-30T23:40:25.680Z,98843.34
2022-10-30T23:42:30.433Z,98842.63
2022-10-30T23:44:35.128Z,98846.97
2022-10-30T23:46:40.132Z,98847.66
2022-10-30T23:48:44.858Z,98838.69
2022-10-30T23:50:49.891Z,98842.84
2022-10-30T23:52:57.220Z,98844.47
2022-10-30T23:55:01.980Z,98842.69
2022-10-30T23:57:07.072Z,98844.47
2022-10-30T23:59:11.898Z,98842.84
